In Rescue
 
Open Full Screen Window  High Contrast Mode
Wind Gusting 00 knots
07
July 24, 2024 5:02 PM CDT
Weather Information
Wind Direction
  080 °
Wind Speed
  07 kt (8 mph)
Wind Gust
  00 kt (0 mph)
Altimeter
30.18 in
Visibility
10 SM
Temperature
27° C
81° F
Dewpoint
17° C
63° F
Humidity
54%
1hr Rain Fall
00.00 in.
24hr Rain Fall
00.98 in.
Sky Condition
Scattered @ 3,500 ft
VFR

METAR KGDB 242202Z AUTO 08007KT 10SM SCT035 27/17 A3018 RMK AO2 T02680174

FAA Disclaimer: The data displayed is for advisory purposes only and is not to be used for flight planning or operations.